Home > Products > Valid Products > TAF

000
FTUS46 KSTO 022300 RRA
TAFRDD
TAF
KRDD 022342Z 0300/0324 17010KT P6SM SKC
     FM030300 VRB03KT P6SM SKC
     FM031600 35009KT P6SM SKC=



000
FTUS46 KSTO 022300 RRA
TAFSCK
TAF
KSCK 022342Z 0300/0324 29012KT P6SM SKC
     FM030800 31005KT P6SM SKC=



000
FTUS46 KSTO 022300 RRA
TAFSMF
TAF
KSMF 022342Z 0300/0324 17012KT P6SM SKC
      TEMPO 0313/0316 15006KT P6SM SCT018
     FM031600 21006KT P6SM FEW025=



000
FTUS46 KSTO 022300 RRA
TAFRBL
TAF
KRBL 022342Z 0300/0324 16013KT P6SM SKC
     FM030300 VRB04KT P6SM SKC
     FM031600 33009KT P6SM SKC=



000
FTUS46 KSTO 022300 RRA
TAFMHR
TAF
KMHR 022342Z 0300/0324 22008KT P6SM SKC
     FM031000 14004KT P6SM SCT015
      TEMPO 0311/0315 OVC015
     FM031700 25006KT P6SM FEW025=



000
FTUS46 KSTO 022300 RRA
TAFSAC
TAF
KSAC 022342Z 0300/0324 22010KT P6SM SKC
     FM031000 15005KT P6SM SCT015
      TEMPO 0312/0316 OVC015
     FM031700 24006KT P6SM FEW025=



000
FTUS46 KSTO 021700 RRA
TAFSAC
TAF
KSAC 021744Z 0218/0318 22011KT P6SM SKC
     FM030500 18009KT P6SM SKC
     FM031100 19005KT P6SM FEW015
      TEMPO 0312/0315 BKN015=



000
FTUS46 KSTO 021700 RRA
TAFRBL
TAF
KRBL 021744Z 0218/0318 33005KT P6SM SKC
     FM022000 16010KT P6SM SKC
     FM030400 VRB03KT P6SM SKC=



000
FTUS46 KSTO 021700 RRA
TAFSMF
TAF
KSMF 021744Z 0218/0318 19009KT P6SM SKC
     FM022300 19014G20KT P6SM SKC
     FM030400 16011KT P6SM SKC
      TEMPO 0312/0315 16006KT P6SM FEW015=



000
FTUS46 KSTO 021700 RRA
TAFRDD
TAF
KRDD 021744Z 0218/0318 VRB04KT P6SM SKC
     FM022100 17009KT P6SM SKC
     FM030400 34003KT P6SM SKC=



000
FTUS46 KSTO 021700 RRA
TAFMHR
TAF
KMHR 021744Z 0218/0318 22008KT P6SM SKC
     FM030500 17006KT P6SM SKC
     FM031000 14004KT P6SM FEW015
      TEMPO 0311/0315 OVC015=



000
FTUS46 KSTO 021700 RRA
TAFSCK
TAF
KSCK 021744Z 0218/0318 29010KT P6SM SKC
     FM030800 31005KT P6SM SKC=



000
FTUS46 KSTO 021100
TAFRDD
TAF
KRDD 021140Z 0212/0312 VRB05KT P6SM SKC
     FM022200 17009KT P6SM SKC
     FM030400 VRB03KT P6SM SKC=



000
FTUS46 KSTO 021100
TAFMHR
TAF
KMHR 021140Z 0212/0312 15005KT P6SM SKC
     FM022000 22008KT P6SM SKC
     FM030500 17006KT P6SM SKC=



000
FTUS46 KSTO 021100
TAFRBL
TAF
KRBL 021140Z 0212/0312 31005KT P6SM SKC
     FM022100 16010KT P6SM SKC
     FM030400 VRB03KT P6SM SKC=



000
FTUS46 KSTO 021100
TAFSCK
TAF
KSCK 021140Z 0212/0312 VRB03KT P6SM SKC
     FM021900 29010KT P6SM SKC
     FM030800 31006KT P6SM SKC=



000
FTUS46 KSTO 021100
TAFSAC
TAF
KSAC 021140Z 0212/0312 19005KT P6SM SKC
     FM021900 22009KT P6SM SKC
     FM022300 20014KT P6SM SKC
     FM030500 18009KT P6SM SKC=



000
FTUS46 KSTO 021100
TAFSMF
TAF
KSMF 021140Z 0212/0312 17006KT P6SM SKC
     FM021900 20010KT P6SM SKC
     FM022300 19014KT P6SM SKC
     FM030400 17009KT P6SM SKC=



000
FTUS46 KSTO 020500
TAFSCK
TAF
KSCK 020527Z 0206/0306 30007KT P6SM SKC
     FM020800 34003KT P6SM SKC
     FM021900 29010KT P6SM SKC=



000
FTUS46 KSTO 020500
TAFRDD
TAF
KRDD 020527Z 0206/0306 VRB05KT P6SM SKC
     FM022200 17007KT P6SM SKC
     FM030400 VRB05KT P6SM SKC=



000
FTUS46 KSTO 020500
TAFMHR
TAF
KMHR 020527Z 0206/0306 VRB05KT P6SM SKC
     FM022000 22008KT P6SM SKC
     FM030500 17006KT P6SM SKC=



000
FTUS46 KSTO 020500
TAFSAC
TAF
KSAC 020527Z 0206/0306 19005KT P6SM SKC
     FM021900 22009KT P6SM SKC=



000
FTUS46 KSTO 020500
TAFSMF
TAF
KSMF 020527Z 0206/0306 18006KT P6SM SKC
     FM022000 20010KT P6SM SKC
     FM030500 17011KT P6SM SKC=



000
FTUS46 KSTO 020500
TAFRBL
TAF
KRBL 020527Z 0206/0306 VRB05KT P6SM SKC
     FM022100 16007KT P6SM SKC
     FM030400 VRB05KT P6SM SKC=



000
FTUS46 KSTO 012300
TAFRBL
TAF
KRBL 012324Z 0200/0224 33006KT P6SM SKC
     FM022000 16007KT P6SM SKC=



000
FTUS46 KSTO 012300
TAFSMF
TAF
KSMF 012324Z 0200/0224 32006KT P6SM SKC
     FM020200 16005KT P6SM SKC
     FM022200 19010KT P6SM SKC=



000
FTUS46 KSTO 012300
TAFSCK
TAF
KSCK 012324Z 0200/0224 31010KT P6SM SKC
     FM020300 34003KT P6SM SKC
     FM022200 29010KT P6SM SKC=



000
FTUS46 KSTO 012300
TAFMHR
TAF
KMHR 012324Z 0200/0224 30005KT P6SM SKC
     FM020300 15003KT P6SM SKC
     FM022200 22008KT P6SM SKC=



000
FTUS46 KSTO 012300
TAFRDD
TAF
KRDD 012324Z 0200/0224 32005KT P6SM SKC
     FM022000 18007KT P6SM SKC=



000
FTUS46 KSTO 012300
TAFSAC
TAF
KSAC 012324Z 0200/0224 30005KT P6SM SKC
     FM020200 17004KT P6SM SKC
     FM022200 22009KT P6SM SKC=



000
FTUS46 KSTO 012200 AAA
TAFRDD
TAF AMD
KRDD 012234Z 0123/0218 32006KT P6SM SKC=



000
FTUS46 KSTO 012200 AAA
TAFRBL
TAF AMD
KRBL 012234Z 0123/0218 33007KT P6SM SKC=



000
FTUS46 KSTO 011700
TAFSAC
TAF
KSAC 011740Z 0118/0218 30005KT P6SM SKC
     FM020100 VRB03KT P6SM SKC=



000
FTUS46 KSTO 011700
TAFSCK
TAF
KSCK 011740Z 0118/0218 32005KT P6SM SKC
     FM012200 31010KT P6SM SKC
     FM020300 34004KT P6SM SKC=



000
FTUS46 KSTO 011700
TAFSMF
TAF
KSMF 011740Z 0118/0218 32006KT P6SM SKC
     FM020100 17006KT P6SM SKC=



000
FTUS46 KSTO 011700
TAFRBL
TAF
KRBL 011740Z 0118/0218 35014G20KT P6SM SKC
     FM012300 36007KT P6SM SKC=



000
FTUS46 KSTO 011700
TAFRDD
TAF
KRDD 011740Z 0118/0218 36012G17KT P6SM SKC
     FM012300 01008KT P6SM SKC=



000
FTUS46 KSTO 011700
TAFMHR
TAF
KMHR 011740Z 0118/0218 30005KT P6SM SKC
     FM020300 VRB03KT P6SM SKC=



000
FTUS46 KSTO 011100
TAFRDD
TAF
KRDD 011128Z 0112/0212 35008KT P6SM SKC
     FM011700 36012G17KT P6SM SKC
     FM012200 01009KT P6SM SKC
     FM020200 VRB05KT P6SM SKC=



000
FTUS46 KSTO 011100
TAFSMF
TAF
KSMF 011128Z 0112/0212 20007KT P6SM SKC
     FM011600 32008KT P6SM SKC
     FM020300 17006KT P6SM SKC=



000
FTUS46 KSTO 011100
TAFSCK
TAF
KSCK 011128Z 0112/0212 VRB04KT P6SM SKC
     FM011500 32005KT P6SM SKC
     FM012200 31010KT P6SM SKC=



000
FTUS46 KSTO 011100
TAFMHR
TAF
KMHR 011128Z 0112/0212 VRB04KT P6SM SKC
     FM011600 30006KT P6SM SKC
     FM020300 VRB04KT P6SM SKC=



000
FTUS46 KSTO 011100
TAFRBL
TAF
KRBL 011128Z 0112/0212 35008KT P6SM SKC
     FM011700 35013G18KT P6SM SKC
     FM012200 36011KT P6SM SKC
     FM020200 VRB05KT P6SM SKC=



000
FTUS46 KSTO 011100
TAFSAC
TAF
KSAC 011128Z 0112/0212 VRB04KT P6SM SKC
     FM011600 30007KT P6SM SKC
     FM020300 23006KT P6SM SKC=



000
FTUS46 KSTO 010800 AAB
TAFRDD
TAF AMD
KRDD 010814Z 0108/0206 35006KT 6SM HZ BKN050
     FM011600 36012G17KT P6SM SKC
     FM012200 01009KT P6SM SKC=



000
FTUS46 KSTO 010700 AAA
TAFRDD
TAF AMD
KRDD 010729Z 0107/0206 35006KT 5SM HZ SKC
     FM011600 36012G17KT P6SM SKC
     FM012200 01009KT P6SM SKC=



000
FTUS46 KSTO 010500
TAFSCK
TAF
KSCK 010521Z 0106/0206 29009KT P6SM SKC=



000
FTUS46 KSTO 010500
TAFRDD
TAF
KRDD 010521Z 0106/0206 35006KT P6SM SKC
     FM011600 36012G17KT P6SM SKC
     FM012200 01009KT P6SM SKC=



000
FTUS46 KSTO 010500
TAFSAC
TAF
KSAC 010521Z 0106/0206 VRB04KT P6SM SKC
     FM011600 30007KT P6SM SKC=



000
FTUS46 KSTO 010500
TAFRBL
TAF
KRBL 010521Z 0106/0206 VRB05KT P6SM SKC
     FM011600 35013G18KT P6SM SKC
     FM012200 35009KT P6SM SKC=



000
FTUS46 KSTO 010500
TAFSMF
TAF
KSMF 010521Z 0106/0206 20007KT P6SM SKC
     FM011600 33008KT P6SM SKC=



000
FTUS46 KSTO 010500
TAFMHR
TAF
KMHR 010521Z 0106/0206 VRB04KT P6SM SKC
     FM011600 30006KT P6SM SKC=



000
FTUS46 KSTO 312300
TAFRBL
TAF
KRBL 312334Z 0100/0124 33007KT P6SM SKC
     FM011600 35013G18KT P6SM SKC
     FM012200 35009KT P6SM SKC=



000
FTUS46 KSTO 312300
TAFMHR
TAF
KMHR 312334Z 0100/0124 VRB04KT P6SM SKC
     FM011600 30006KT P6SM SKC=



000
FTUS46 KSTO 312300
TAFRDD
TAF
KRDD 312334Z 0100/0124 35006KT P6SM SKC
     FM011600 36012G17KT P6SM SKC
     FM012200 01009KT P6SM SKC=



000
FTUS46 KSTO 312300
TAFSAC
TAF
KSAC 312334Z 0100/0124 VRB04KT P6SM SKC
     FM011600 32007KT P6SM SKC=



000
FTUS46 KSTO 312300
TAFSCK
TAF
KSCK 312334Z 0100/0124 29009KT P6SM SKC=



000
FTUS46 KSTO 312300
TAFSMF
TAF
KSMF 312334Z 0100/0124 16007KT P6SM SKC
     FM011600 33008KT P6SM SKC=



000
FTUS46 KSTO 311700
TAFRDD
TAF
KRDD 311730Z 3118/0118 36008KT P6SM SKC
     FM011600 36013KT P6SM SKC=



000
FTUS46 KSTO 311700
TAFSCK
TAF
KSCK 311730Z 3118/0118 29009KT P6SM SKC=



000
FTUS46 KSTO 311700
TAFSAC
TAF
KSAC 311730Z 3118/0118 22006KT P6SM SKC
     FM010500 VRB04KT P6SM SKC
     FM011600 32006KT P6SM SKC=



000
FTUS46 KSTO 311700
TAFRBL
TAF
KRBL 311730Z 3118/0118 36009KT P6SM SKC
     FM010500 33007KT P6SM SKC
     FM011600 35013KT P6SM SKC=



000
FTUS46 KSTO 311700
TAFSMF
TAF
KSMF 311730Z 3118/0118 VRB05KT P6SM SKC
     FM010200 16006KT P6SM SKC
     FM011600 32007KT P6SM SKC=



000
FTUS46 KSTO 311700
TAFMHR
TAF
KMHR 311730Z 3118/0118 VRB05KT P6SM SKC=



000
FTUS46 KSTO 311100
TAFSMF
TAF
KSMF 311120Z 3112/0112 15007KT P6SM SKC
     FM311900 22006KT P6SM SKC
     FM010200 16007KT P6SM SKC=



000
FTUS46 KSTO 311100
TAFRDD
TAF
KRDD 311120Z 3112/0112 35008KT P6SM SKC=



000
FTUS46 KSTO 311100
TAFMHR
TAF
KMHR 311120Z 3112/0112 14006KT P6SM SKC
     FM311900 23006KT P6SM SKC
     FM010600 14005KT P6SM SKC
      AMD NOT SKED=



000
FTUS46 KSTO 311100
TAFSCK
TAF
KSCK 311120Z 3112/0112 27007KT P6SM SKC
     FM312300 29011G17KT P6SM SKC
     FM010600 28006KT P6SM SKC=



000
FTUS46 KSTO 311100
TAFRBL
TAF
KRBL 311120Z 3112/0112 35009KT P6SM SKC=



000
FTUS46 KSTO 311100
TAFSAC
TAF
KSAC 311120Z 3112/0112 22006KT P6SM SKC=



000
FTUS46 KSTO 310600 AAA
TAFMHR
TAF AMD
KMHR 310616Z 3106/0106 14006KT P6SM SKC
     FM311800 22007KT P6SM SKC
      AMD NOT SKED=



000
FTUS46 KSTO 310500
TAFRBL
TAF
KRBL 310535Z 3106/0106 31007KT P6SM SKC
     FM311600 35010KT P6SM SKC=



000
FTUS46 KSTO 310500
TAFSMF
TAF
KSMF 310535Z 3106/0106 15009KT P6SM SKC
     FM311900 25006KT P6SM SKC=



000
FTUS46 KSTO 310500
TAFSCK
TAF
KSCK 310535Z 3106/0106 VRB05KT P6SM SKC
     FM310800 30009KT P6SM SKC=



000
FTUS46 KSTO 310500
TAFSAC
TAF
KSAC 310535Z 3106/0106 18006KT P6SM SKC
     FM311700 22006KT P6SM SKC=



000
FTUS46 KSTO 310500
TAFMHR
TAF
KMHR 310535Z 3106/0106 20008KT P6SM SKC
     FM311800 22007KT P6SM SKC=



000
FTUS46 KSTO 310500
TAFRDD
TAF
KRDD 310535Z 3106/0106 31008KT P6SM SKC
     FM311600 36010KT P6SM SKC=



    US Dept of Commerce
    National Oceanic and Atmospheric Administration
    National Weather Service
    1325 East West Highway
    Silver Spring, MD 20910
    Page Author: NWS Internet Services Team
Disclaimer
Information Quality
Credits
Glossary
Privacy Policy
Freedom of Information Act (FOIA)
About Us
Career Opportunities